Time;durP1;ratioP1;P1;durP2;ratioP2;P2;SDS_P1;SDS_P2;PMS_P1;PMS_P2;Temp;Humidity;BMP_temperature;BMP_pressure;BME280_temperature;BME280_humidity;BME280_pressure;Samples;Min_cycle;Max_cycle;Signal;HPM_P1;HPM_P2
2022/05/18 00:00:20;;;;;;;2.93;1.33;;;;;;;12.47;62.27;100597.69;1469982;87;21451;-87
2022/05/18 00:02:46;;;;;;;7.03;1.80;;;;;;;12.38;62.16;100602.11;1469864;87;21443;-87
2022/05/18 00:05:13;;;;;;;4.17;1.60;;;;;;;12.33;62.27;100612.35;1477813;87;21529;-87
2022/05/18 00:07:39;;;;;;;3.53;1.80;;;;;;;12.27;62.31;100608.98;1483004;87;21491;-86
2022/05/18 00:10:08;;;;;;;2.53;1.80;;;;;;;12.22;62.29;100613.92;1472391;87;22350;-87
2022/05/18 00:12:34;;;;;;;9.27;2.33;;;;;;;12.18;62.20;100615.55;1471686;87;21557;-86
2022/05/18 00:15:00;;;;;;;6.20;2.37;;;;;;;12.15;62.31;100619.84;1474089;87;22379;-86
2022/05/18 00:17:27;;;;;;;2.47;1.20;;;;;;;12.11;62.54;100625.12;1484042;87;21456;-84
2022/05/18 00:19:53;;;;;;;4.07;1.73;;;;;;;12.04;62.80;100621.41;1470676;87;21399;-85
2022/05/18 00:22:19;;;;;;;3.83;1.60;;;;;;;11.98;63.09;100625.16;1479216;87;21464;-85
2022/05/18 00:24:45;;;;;;;7.63;1.77;;;;;;;11.95;63.27;100626.30;1475661;87;22471;-86
2022/05/18 00:27:11;;;;;;;5.53;1.73;;;;;;;11.92;63.15;100637.21;1479855;87;21473;-86
2022/05/18 00:29:37;;;;;;;3.73;1.93;;;;;;;11.90;63.41;100638.67;1476680;87;21937;-86
2022/05/18 00:32:04;;;;;;;4.60;1.60;;;;;;;11.87;63.05;100646.11;1478345;87;21562;-86
2022/05/18 00:34:30;;;;;;;6.33;1.80;;;;;;;11.85;62.98;100649.36;1473831;87;21525;-85
2022/05/18 00:36:56;;;;;;;8.43;1.10;;;;;;;11.78;63.13;100648.31;1459429;87;21457;-86
2022/05/18 00:39:23;;;;;;;8.13;2.07;;;;;;;11.67;62.94;100658.13;1473473;87;21443;-85
2022/05/18 00:41:49;;;;;;;4.33;1.17;;;;;;;11.64;63.46;100663.73;1474949;87;21444;-85
2022/05/18 00:44:17;;;;;;;3.53;1.27;;;;;;;11.57;62.65;100664.48;1473140;87;22492;-86
2022/05/18 00:46:44;;;;;;;2.90;1.70;;;;;;;11.58;62.83;100675.42;1480464;86;22359;-87
2022/05/18 00:49:11;;;;;;;2.03;1.33;;;;;;;11.57;62.66;100673.77;1487577;86;21425;-86
2022/05/18 00:51:53;;;;;;;4.60;1.27;;;;;;;11.56;62.73;100676.88;1471632;86;21570;-85
2022/05/18 00:54:27;;;;;;;4.43;1.93;;;;;;;11.51;62.84;100687.12;1471783;87;22410;-85
2022/05/18 00:57:17;;;;;;;2.67;1.27;;;;;;;11.49;62.87;100691.72;1468606;87;22419;-85
2022/05/18 01:00:01;;;;;;;6.03;2.00;;;;;;;11.45;62.67;100690.33;1454461;88;21635;-85
2022/05/18 01:02:32;;;;;;;8.27;2.13;;;;;;;11.39;63.05;100691.75;1475638;87;21724;-85
2022/05/18 01:05:01;;;;;;;5.67;1.77;;;;;;;11.25;64.10;100693.09;1466185;87;21565;-84
2022/05/18 01:07:33;;;;;;;5.53;1.60;;;;;;;11.20;63.08;100691.36;1472455;87;21982;-85
2022/05/18 01:09:59;;;;;;;9.47;1.90;;;;;;;11.17;61.71;100702.74;1471421;87;21695;-85
2022/05/18 01:12:26;;;;;;;5.63;1.97;;;;;;;11.18;61.51;100705.72;1451242;89;21422;-85
2022/05/18 01:15:13;;;;;;;2.83;1.33;;;;;;;11.16;61.67;100713.80;1474278;87;22440;-85
2022/05/18 01:17:42;;;;;;;2.70;1.60;;;;;;;11.15;63.06;100716.12;1467424;87;21452;-86
2022/05/18 01:20:14;;;;;;;5.77;1.50;;;;;;;11.15;62.01;100724.06;1468796;87;21426;-86
2022/05/18 01:23:15;;;;;;;4.00;1.57;;;;;;;11.12;60.95;100721.70;1465402;87;21492;-84
2022/05/18 01:25:59;;;;;;;5.53;1.72;;;;;;;11.10;60.21;100728.95;1453774;88;21574;-86
2022/05/18 01:28:31;;;;;;;6.80;1.37;;;;;;;11.10;60.14;100738.22;1458746;88;21340;-86
2022/05/18 01:30:57;;;;;;;4.97;1.30;;;;;;;11.10;60.14;100744.84;1461938;87;21540;-87
2022/05/18 01:33:25;;;;;;;4.10;1.30;;;;;;;11.05;59.76;100741.81;1470775;87;21900;-87
2022/05/18 01:35:52;;;;;;;4.37;1.20;;;;;;;11.01;59.72;100745.70;1475538;87;21621;-87
2022/05/18 01:38:18;;;;;;;6.00;1.30;;;;;;;10.97;59.64;100745.66;1480841;87;23568;-86
2022/05/18 01:40:50;;;;;;;14.90;2.40;;;;;;;10.96;59.89;100750.13;1472321;87;22771;-86
2022/05/18 01:43:33;;;;;;;2.57;1.30;;;;;;;10.92;59.39;100755.84;1482065;87;21406;-83
2022/05/18 01:46:04;;;;;;;2.70;1.13;;;;;;;10.92;58.96;100754.52;1470495;87;21619;-83
2022/05/18 01:48:34;;;;;;;2.87;1.15;;;;;;;10.84;59.39;100758.69;1477798;87;21542;-83
2022/05/18 01:51:03;;;;;;;6.33;1.65;;;;;;;10.82;58.69;100771.25;1471246;87;21500;-83
2022/05/18 01:53:31;;;;;;;3.27;1.23;;;;;;;10.79;58.88;100775.51;1471210;87;21574;-84
2022/05/18 01:55:57;;;;;;;2.07;1.03;;;;;;;10.72;58.71;100786.30;1462836;87;22487;-82
2022/05/18 01:58:27;;;;;;;3.80;1.93;;;;;;;10.66;58.27;100786.86;1448185;88;21480;-83
2022/05/18 02:00:54;;;;;;;2.60;1.50;;;;;;;10.63;57.50;100787.14;1454333;87;21393;-83
2022/05/18 02:03:23;;;;;;;3.93;0.97;;;;;;;10.61;57.19;100795.69;1469759;87;22308;-86
2022/05/18 02:05:52;;;;;;;2.63;1.10;;;;;;;10.60;57.10;100798.00;1454713;87;21525;-85
2022/05/18 02:08:19;;;;;;;3.67;1.63;;;;;;;10.60;56.17;100798.00;1452879;87;21632;-86
2022/05/18 02:10:45;;;;;;;1.97;1.20;;;;;;;10.60;55.70;100805.45;1476924;87;21458;-86
2022/05/18 02:13:11;;;;;;;3.50;1.30;;;;;;;10.64;57.01;100806.50;1459355;87;21398;-85
2022/05/18 02:15:38;;;;;;;3.70;1.30;;;;;;;10.61;57.02;100807.11;1476006;87;21412;-85
2022/05/18 02:18:06;;;;;;;4.67;1.60;;;;;;;10.54;57.10;100814.44;1457462;87;21594;-87
2022/05/18 02:20:34;;;;;;;2.50;1.27;;;;;;;10.48;57.36;100822.44;1480580;87;21538;-84
2022/05/18 02:23:02;;;;;;;6.50;1.43;;;;;;;10.44;57.45;100821.52;1467741;87;21419;-85
2022/05/18 02:25:28;;;;;;;2.13;1.10;;;;;;;10.36;58.19;100820.41;1477631;87;21399;-84
2022/05/18 02:27:55;;;;;;;4.53;1.17;;;;;;;10.27;58.39;100826.52;1479308;87;21480;-85
2022/05/18 02:30:22;;;;;;;10.73;1.20;;;;;;;10.18;58.30;100828.59;1476138;87;21458;-85
2022/05/18 02:32:49;;;;;;;5.23;1.80;;;;;;;10.09;57.82;100823.63;1465521;87;22526;-85
2022/05/18 02:35:16;;;;;;;3.40;1.40;;;;;;;10.03;56.97;100827.31;1472785;87;21532;-84
2022/05/18 02:37:42;;;;;;;1.93;1.00;;;;;;;9.98;57.43;100830.84;1469283;87;23865;-84
2022/05/18 02:40:10;;;;;;;5.83;1.30;;;;;;;9.87;56.41;100832.63;1468215;87;21589;-84
2022/05/18 02:42:36;;;;;;;1.93;1.00;;;;;;;9.81;55.72;100844.19;1471404;87;21560;-84
2022/05/18 02:45:04;;;;;;;4.83;1.37;;;;;;;9.76;54.60;100845.93;1465892;87;21426;-84
2022/05/18 02:47:31;;;;;;;3.33;1.43;;;;;;;9.78;54.03;100851.93;1475784;87;21377;-85
2022/05/18 02:49:57;;;;;;;3.83;1.40;;;;;;;9.77;53.67;100852.88;1459168;87;21369;-83
2022/05/18 02:52:24;;;;;;;5.80;1.07;;;;;;;9.78;54.02;100853.71;1466927;87;22060;-83
2022/05/18 02:57:35;;;;;;;6.00;0.90;;;;;;;9.63;54.64;100861.98;1461545;87;21451;-83
2022/05/18 03:00:03;;;;;;;3.13;1.07;;;;;;;9.54;54.99;100868.55;1476760;87;21618;-83
2022/05/18 03:02:29;;;;;;;4.77;0.90;;;;;;;9.46;55.36;100875.79;1470971;87;21626;-83
2022/05/18 03:04:55;;;;;;;1.97;1.00;;;;;;;9.40;55.72;100880.27;1474606;87;21369;-83
2022/05/18 03:07:22;;;;;;;2.00;0.90;;;;;;;9.32;55.78;100882.26;1451148;88;21604;-83
2022/05/18 03:09:48;;;;;;;5.30;1.20;;;;;;;9.29;55.98;100889.09;1480092;87;22408;-83
2022/05/18 03:12:14;;;;;;;3.03;0.93;;;;;;;9.31;56.73;100897.73;1469749;87;21436;-83
2022/05/18 03:14:40;;;;;;;3.93;1.00;;;;;;;9.29;56.37;100900.98;1461556;87;22088;-84
2022/05/18 03:17:06;;;;;;;3.13;1.30;;;;;;;9.29;57.16;100907.58;1458247;87;22331;-85
2022/05/18 03:19:33;;;;;;;7.47;2.10;;;;;;;9.26;56.91;100915.76;1469606;88;21436;-84
2022/05/18 03:24:44;;;;;;;4.23;1.07;;;;;;;9.22;56.82;100932.34;1451486;89;21436;-84
2022/05/18 03:27:11;;;;;;;7.20;1.07;;;;;;;9.23;56.51;100931.38;1473181;87;21426;-85
2022/05/18 03:29:37;;;;;;;2.73;1.33;;;;;;;9.28;56.79;100936.78;1475458;87;21584;-84
2022/05/18 03:32:04;;;;;;;2.57;0.90;;;;;;;9.30;56.32;100944.94;1479004;86;21368;-84
2022/05/18 03:34:33;;;;;;;2.80;0.97;;;;;;;9.31;55.27;100951.88;1475445;87;21406;-84
2022/05/18 03:37:00;;;;;;;4.87;1.50;;;;;;;9.33;53.80;100955.24;1477199;87;21479;-85
2022/05/18 03:39:27;;;;;;;8.73;1.30;;;;;;;9.41;54.78;100949.34;1475907;87;21514;-84
2022/05/18 03:41:53;;;;;;;6.90;1.13;;;;;;;9.44;54.64;100959.65;1481152;87;21714;-83
2022/05/18 03:44:20;;;;;;;4.13;1.00;;;;;;;9.44;53.87;100964.45;1470620;87;22338;-85
2022/05/18 03:46:47;;;;;;;4.13;1.40;;;;;;;9.43;53.61;100974.64;1472331;87;21570;-83
2022/05/18 03:49:13;;;;;;;5.27;0.87;;;;;;;9.43;53.96;100979.92;1470121;88;21576;-86
2022/05/18 03:51:39;;;;;;;3.17;0.90;;;;;;;9.46;52.95;100988.91;1468241;87;22901;-86
2022/05/18 03:54:06;;;;;;;3.43;1.10;;;;;;;9.48;53.51;100996.24;1452330;88;21408;-85
2022/05/18 03:56:33;;;;;;;6.30;1.00;;;;;;;9.51;53.13;100994.31;1471376;88;21611;-85
2022/05/18 03:59:00;;;;;;;4.20;1.23;;;;;;;9.59;54.38;100999.81;1478674;87;21434;-85
2022/05/18 04:01:27;;;;;;;3.27;1.40;;;;;;;9.60;52.09;101008.09;1471929;87;21493;-84
2022/05/18 04:03:54;;;;;;;3.27;1.33;;;;;;;9.62;52.78;101004.84;1468034;87;21480;-85
2022/05/18 04:06:20;;;;;;;1.63;1.10;;;;;;;9.60;51.98;101012.88;1466728;87;21375;-88
2022/05/18 04:08:46;;;;;;;12.67;1.93;;;;;;;9.65;52.69;101015.16;1455952;87;21377;-84
2022/05/18 04:11:13;;;;;;;8.33;2.67;;;;;;;9.67;53.47;101014.06;1486996;87;21577;-86
2022/05/18 04:13:41;;;;;;;2.53;1.27;;;;;;;9.73;54.48;101023.30;1477459;87;21428;-86
2022/05/18 04:16:08;;;;;;;4.20;1.60;;;;;;;9.73;52.26;101025.94;1466672;86;21396;-85
2022/05/18 04:18:35;;;;;;;2.60;1.10;;;;;;;9.78;52.43;101030.82;1474176;87;21510;-87
2022/05/18 04:21:02;;;;;;;5.53;1.73;;;;;;;9.79;51.64;101037.31;1477811;87;21502;-86
2022/05/18 04:23:29;;;;;;;3.23;1.20;;;;;;;9.84;51.54;101043.06;1480065;87;21421;-84
2022/05/18 04:25:56;;;;;;;7.80;1.50;;;;;;;9.89;50.88;101050.11;1468723;87;21362;-85
2022/05/18 04:28:22;;;;;;;6.10;1.30;;;;;;;9.97;53.11;101049.48;1463780;87;21426;-86
2022/05/18 04:30:50;;;;;;;5.47;1.13;;;;;;;9.99;51.61;101051.52;1466114;88;21603;-87
2022/05/18 04:33:20;;;;;;;3.03;1.40;;;;;;;10.06;51.62;101061.09;1452373;87;21473;-86
2022/05/18 04:35:50;;;;;;;6.90;1.95;;;;;;;10.11;50.92;101062.88;1474621;87;21425;-86
2022/05/18 04:38:19;;;;;;;5.28;1.72;;;;;;;10.13;50.22;101060.45;1470991;87;22473;-87
2022/05/18 04:40:46;;;;;;;3.47;1.30;;;;;;;10.23;51.30;101068.44;1454064;87;22432;-85
2022/05/18 04:43:12;;;;;;;5.40;2.17;;;;;;;10.24;48.83;101070.59;1460762;87;21435;-86
2022/05/18 04:45:44;;;;;;;7.80;1.40;;;;;;;10.30;50.19;101069.64;1478289;87;21539;-86
2022/05/18 04:48:07;;;;;;;4.27;1.53;;;;;;;10.34;48.39;101077.66;1487065;86;22440;-84
2022/05/18 04:50:34;;;;;;;5.47;2.10;;;;;;;10.42;49.16;101078.34;1476111;87;21505;-84
2022/05/18 04:53:00;;;;;;;6.47;1.30;;;;;;;10.48;49.28;101079.63;1459970;88;21478;-85
2022/05/18 04:55:26;;;;;;;1.17;0.90;;;;;;;10.52;48.93;101090.30;1455633;87;21389;-85
2022/05/18 04:57:52;;;;;;;4.83;1.30;;;;;;;10.50;47.10;101097.06;1455690;87;23360;-85
2022/05/18 05:00:18;;;;;;;5.93;1.77;;;;;;;10.58;48.22;101101.68;1466463;87;21592;-84
2022/05/18 05:02:46;;;;;;;6.27;2.57;;;;;;;10.65;48.50;101111.28;1453179;87;22538;-83
2022/05/18 05:05:14;;;;;;;10.30;1.60;;;;;;;10.71;48.78;101115.56;1458522;87;21531;-84
2022/05/18 05:07:40;;;;;;;1.90;1.30;;;;;;;10.76;48.55;101116.01;1482085;87;21561;-84
2022/05/18 05:10:07;;;;;;;5.27;1.87;;;;;;;10.81;48.37;101127.02;1484131;87;21524;-85
2022/05/18 05:12:34;;;;;;;3.97;1.47;;;;;;;10.87;48.21;101128.79;1477702;87;21414;-84
2022/05/18 05:15:00;;;;;;;9.53;2.27;;;;;;;10.94;48.04;101125.98;1479235;87;22331;-83
2022/05/18 05:17:27;;;;;;;5.73;1.30;;;;;;;11.02;47.60;101132.78;1476122;87;21451;-84
2022/05/18 05:19:53;;;;;;;5.17;1.83;;;;;;;11.02;46.72;101134.11;1472113;87;21399;-83
2022/05/18 05:22:19;;;;;;;7.33;1.30;;;;;;;11.09;47.94;101129.10;1486952;87;22455;-83
2022/05/18 05:24:46;;;;;;;8.13;1.93;;;;;;;11.04;45.32;101140.92;1466165;87;21507;-86
2022/05/18 05:27:12;;;;;;;9.10;1.70;;;;;;;11.05;46.35;101141.29;1457096;87;21413;-84
2022/05/18 05:29:38;;;;;;;3.13;1.20;;;;;;;11.22;49.38;101140.28;1464719;87;21399;-85
2022/05/18 05:32:07;;;;;;;4.97;1.20;;;;;;;11.31;48.14;101150.10;1458936;86;22470;-84
2022/05/18 05:34:35;;;;;;;3.70;1.10;;;;;;;11.37;46.53;101142.10;1456413;88;21304;-88
2022/05/18 05:37:01;;;;;;;7.30;1.30;;;;;;;11.44;46.18;101154.66;1470408;87;21490;-90
2022/05/18 05:39:28;;;;;;;11.03;1.50;;;;;;;11.55;47.92;101164.31;1461694;87;21405;-85
2022/05/18 05:41:54;;;;;;;4.77;1.60;;;;;;;11.64;45.69;101154.22;1467286;87;22265;-89
2022/05/18 05:44:20;;;;;;;6.20;1.43;;;;;;;11.69;44.72;101155.14;1470976;87;21355;-88
2022/05/18 05:46:46;;;;;;;9.43;1.17;;;;;;;11.74;45.12;101168.34;1477923;87;21466;-86
2022/05/18 05:49:13;;;;;;;8.23;1.60;;;;;;;11.85;45.50;101162.09;1471841;87;21367;-88
2022/05/18 05:51:39;;;;;;;6.13;1.73;;;;;;;11.91;43.82;101160.70;1458515;88;21393;-86
2022/05/18 05:54:05;;;;;;;5.37;1.40;;;;;;;11.95;43.08;101160.78;1463386;88;22440;-87
2022/05/18 05:56:31;;;;;;;5.03;1.67;;;;;;;11.99;43.04;101171.45;1463300;87;21650;-93
2022/05/18 05:58:58;;;;;;;3.80;1.40;;;;;;;12.08;44.24;101165.80;1476024;87;22248;-90
2022/05/18 06:01:25;;;;;;;9.10;1.50;;;;;;;12.23;46.14;101177.70;1458564;87;21441;-88
2022/05/18 06:03:51;;;;;;;14.03;2.23;;;;;;;12.26;43.28;101176.59;1468646;87;21604;-89
2022/05/18 06:06:19;;;;;;;6.17;2.03;;;;;;;12.38;44.36;101181.59;1471794;87;21420;-91
2022/05/18 06:08:45;;;;;;;4.30;1.47;;;;;;;12.50;44.00;101180.95;1472180;87;22397;-91
2022/05/18 06:11:12;;;;;;;7.23;1.63;;;;;;;12.59;44.08;101185.41;1471334;87;21474;-87
2022/05/18 06:13:40;;;;;;;3.10;1.00;;;;;;;12.51;42.20;101186.59;1479252;87;22441;-84
2022/05/18 06:16:08;;;;;;;5.30;1.07;;;;;;;12.42;41.16;101188.78;1484818;87;21915;-85
2022/05/18 06:18:35;;;;;;;4.90;1.30;;;;;;;12.41;41.97;101197.73;1479744;87;21583;-87
2022/05/18 06:21:02;;;;;;;4.27;1.40;;;;;;;12.53;42.83;101192.61;1479360;87;21361;-86
2022/05/18 06:23:30;;;;;;;2.37;1.07;;;;;;;12.70;42.04;101202.17;1480929;87;21413;-89
2022/05/18 06:26:02;;;;;;;9.77;1.70;;;;;;;12.82;41.10;101210.31;1464956;87;21545;-88
2022/05/18 06:28:28;;;;;;;6.30;1.30;;;;;;;12.82;40.73;101211.65;1461783;88;21392;-87
2022/05/18 06:30:54;;;;;;;8.60;1.33;;;;;;;12.89;40.37;101210.11;1471994;87;21509;-87
2022/05/18 06:33:21;;;;;;;4.53;1.53;;;;;;;12.97;39.47;101227.47;1477096;87;22382;-87
2022/05/18 06:35:51;;;;;;;2.90;1.00;;;;;;;13.15;40.45;101224.06;1475222;87;21282;-87
2022/05/18 06:38:15;;;;;;;7.53;1.10;;;;;;;13.26;39.01;101231.43;1445479;87;21319;-88
2022/05/18 06:43:17;;;;;;;3.80;1.63;;;;;;;13.49;40.52;101236.35;1432296;88;21597;-87
2022/05/18 06:45:44;;;;;;;6.03;1.00;;;;;;;13.58;39.22;101239.95;1446050;87;22353;-86
2022/05/18 06:48:10;;;;;;;2.23;0.90;;;;;;;13.64;38.71;101236.23;1482661;87;22393;-87
2022/05/18 06:50:36;;;;;;;8.17;1.77;;;;;;;13.32;35.55;101244.60;1444555;87;22153;-87
2022/05/18 06:53:02;;;;;;;8.90;2.27;;;;;;;13.41;37.57;101257.05;1485399;88;21266;-87
2022/05/18 06:55:28;;;;;;;2.57;1.17;;;;;;;13.53;38.21;101259.03;1458057;88;21282;-91
2022/05/18 06:57:55;;;;;;;2.33;0.77;;;;;;;13.39;34.31;101268.81;1456910;87;22432;-87
2022/05/18 07:00:22;;;;;;;2.53;0.90;;;;;;;13.43;35.72;101263.03;1472754;87;21627;-87
2022/05/18 07:02:50;;;;;;;4.57;1.17;;;;;;;13.72;37.43;101277.56;1465940;86;21463;-86
2022/05/18 07:05:16;;;;;;;5.17;2.00;;;;;;;13.76;35.63;101275.44;1479486;87;21429;-87
2022/05/18 07:07:42;;;;;;;5.30;1.00;;;;;;;13.82;36.61;101282.83;1478324;86;21529;-88
2022/05/18 07:10:09;;;;;;;4.70;1.30;;;;;;;13.90;35.21;101282.93;1469116;87;22440;-86
2022/05/18 07:12:37;;;;;;;5.67;1.10;;;;;;;14.03;36.37;101287.05;1476930;87;21392;-88
2022/05/18 07:15:07;;;;;;;1.87;1.10;;;;;;;14.17;36.85;101287.38;1452959;87;21509;-87
2022/05/18 07:17:34;;;;;;;;;;;;;;;14.33;36.62;101286.73;1447746;88;22641;-85
2022/05/18 07:20:03;;;;;;;9.93;1.20;;;;;;;14.40;35.16;101293.61;1438145;87;20314;-87
2022/05/18 07:22:29;;;;;;;10.13;1.43;;;;;;;14.43;36.95;101290.14;1464367;87;21296;-86
2022/05/18 07:24:56;;;;;;;3.63;1.10;;;;;;;14.34;35.05;101299.05;1513208;87;21311;-87
2022/05/18 07:27:22;;;;;;;3.63;1.50;;;;;;;14.43;36.33;101296.80;1463057;89;21304;-89
2022/05/18 07:29:48;;;;;;;3.57;1.17;;;;;;;14.46;34.70;101295.66;1474428;87;22243;-87
2022/05/18 07:32:15;;;;;;;7.27;1.00;;;;;;;14.36;34.28;101294.41;1496372;87;21315;-86
2022/05/18 07:34:42;;;;;;;4.20;0.90;;;;;;;14.50;35.23;101301.52;1482979;87;21311;-87
2022/05/18 07:37:09;;;;;;;6.50;2.90;;;;;;;14.63;34.65;101304.68;1461279;87;22228;-89
2022/05/18 07:39:36;;;;;;;4.23;1.17;;;;;;;14.75;35.08;101302.11;1417606;88;21402;-86
2022/05/18 07:42:05;;;;;;;2.60;1.07;;;;;;;14.78;33.62;101312.47;1463871;87;21386;-86
2022/05/18 07:44:33;;;;;;;11.13;1.03;;;;;;;14.72;32.68;101313.58;1464316;87;21289;-86
2022/05/18 07:46:59;;;;;;;7.07;1.30;;;;;;;14.76;34.79;101319.80;1453669;87;21331;-88
2022/05/18 07:49:26;;;;;;;3.73;1.00;;;;;;;14.88;34.61;101305.23;1516574;87;22865;-92
2022/05/18 07:51:52;;;;;;;4.70;1.97;;;;;;;15.04;34.22;101308.50;1503763;87;21301;-88
2022/05/18 07:54:18;;;;;;;2.97;0.83;;;;;;;14.98;32.38;101322.95;1467811;87;21413;-87
2022/05/18 07:56:44;;;;;;;9.80;1.10;;;;;;;15.12;33.69;101323.23;1475371;87;21421;-87
2022/05/18 07:59:11;;;;;;;5.53;1.30;;;;;;;15.14;32.55;101336.92;1473380;87;21436;-88
2022/05/18 08:01:39;;;;;;;4.73;0.93;;;;;;;15.28;33.21;101335.86;1467955;88;23406;-87
2022/05/18 08:04:06;;;;;;;3.93;0.80;;;;;;;15.31;31.83;101348.05;1454427;89;21651;-88
2022/05/18 08:06:33;;;;;;;7.90;1.00;;;;;;;15.32;31.78;101343.05;1467466;87;21583;-88
2022/05/18 08:09:01;;;;;;;4.07;0.83;;;;;;;15.36;32.21;101345.73;1467221;87;21500;-88
2022/05/18 08:16:56;;;;;;;28.83;2.57;;;;;;;15.42;29.75;101346.94;1477142;87;22782;-88
2022/05/18 08:19:23;;;;;;;13.23;1.50;;;;;;;15.53;31.55;101362.68;1476610;87;21436;-89
2022/05/18 08:21:49;;;;;;;27.60;2.60;;;;;;;15.42;31.28;101364.27;1466273;87;21451;-89
2022/05/18 08:24:16;;;;;;;8.50;1.07;;;;;;;15.41;30.90;101367.94;1470104;87;21481;-88
2022/05/18 08:26:42;;;;;;;7.80;0.90;;;;;;;15.50;33.08;101376.34;1470766;87;21472;-89
2022/05/18 08:29:10;;;;;;;2.70;1.10;;;;;;;15.67;31.09;101365.27;1455839;89;21524;-89
2022/05/18 08:31:36;;;;;;;12.30;1.43;;;;;;;15.85;29.60;101371.90;1460440;87;21971;-88
2022/05/18 08:34:03;;;;;;;7.37;2.00;;;;;;;15.59;30.19;101363.38;1470490;87;22321;-91
2022/05/18 08:36:31;;;;;;;9.73;1.00;;;;;;;15.60;29.46;101372.25;1467258;87;22485;-92
2022/05/18 08:38:58;;;;;;;5.63;0.90;;;;;;;15.71;32.91;101378.19;1463335;88;22810;-91
2022/05/18 08:41:38;;;;;;;14.27;1.30;;;;;;;15.92;31.16;101369.78;1455975;88;21355;-88
2022/05/18 08:44:08;;;;;;;7.08;1.27;;;;;;;16.07;31.96;101380.69;1477416;87;22317;-89
2022/05/18 08:47:02;;;;;;;4.65;0.90;;;;;;;16.39;32.18;101383.14;1480480;87;21406;-88
2022/05/18 08:49:39;;;;;;;5.90;1.00;;;;;;;16.37;31.21;101369.96;1479331;87;21475;-89
2022/05/18 08:52:26;;;;;;;5.43;0.73;;;;;;;16.38;32.41;101378.81;1472829;87;21376;-90
2022/05/18 08:55:24;;;;;;;9.80;0.97;;;;;;;16.43;29.98;101361.80;1396374;92;22353;-89
2022/05/18 08:57:52;;;;;;;8.27;1.03;;;;;;;16.09;28.56;101375.20;1403724;91;21740;-90
2022/05/18 09:00:23;;;;;;;5.37;0.80;;;;;;;16.29;30.37;101372.60;1390962;92;23891;-92
2022/05/18 09:03:01;;;;;;;5.70;1.00;;;;;;;16.62;31.65;101378.85;1400073;92;22828;-92
2022/05/18 09:05:57;;;;;;;2.67;0.90;;;;;;;16.75;30.75;101369.55;1404968;92;21650;-88
2022/05/18 09:08:29;;;;;;;1.97;0.90;;;;;;;16.92;32.25;101373.94;1397795;92;21414;-89
2022/05/18 09:11:21;;;;;;;4.87;1.00;;;;;;;16.97;30.54;101379.59;1383293;93;21718;-89
2022/05/18 09:13:48;;;;;;;9.03;1.20;;;;;;;17.08;31.97;101392.64;1395656;93;21651;-90
2022/05/18 09:16:29;;;;;;;3.37;0.97;;;;;;;17.14;32.11;101389.80;1377850;93;21546;-90
2022/05/18 09:19:15;;;;;;;3.55;1.10;;;;;;;17.13;31.41;101383.63;1385656;93;21572;-88
2022/05/18 09:22:14;;;;;;;4.47;1.00;;;;;;;16.86;29.97;101374.09;1400992;91;22645;-90
2022/05/18 09:25:11;;;;;;;3.73;1.00;;;;;;;16.87;30.28;101383.78;1399149;92;21466;-91
2022/05/18 09:28:08;;;;;;;5.10;1.10;;;;;;;17.12;30.49;101380.62;1391251;92;22493;-91
2022/05/18 09:31:18;;;;;;;1.77;0.90;;;;;;;17.43;30.92;101382.59;1435505;87;22424;-86
2022/05/18 09:34:16;;;;;;;7.25;1.00;;;;;;;17.60;29.28;101387.42;1477216;87;21480;-91
2022/05/18 09:37:17;;;;;;;5.07;1.00;;;;;;;17.72;29.80;101385.22;1445211;87;21494;-90
2022/05/18 09:39:48;;;;;;;3.70;0.70;;;;;;;17.21;28.93;101382.80;1476128;87;21687;-91
2022/05/18 09:42:20;;;;;;;9.93;1.47;;;;;;;17.03;28.86;101376.28;1471422;87;21414;-89
2022/05/18 09:45:00;;;;;;;5.00;1.10;;;;;;;17.02;28.65;101385.29;1472125;87;21393;-91
2022/05/18 09:47:30;;;;;;;5.25;0.80;;;;;;;17.42;30.34;101379.59;1472520;87;21517;-91
2022/05/18 09:50:03;;;;;;;10.30;0.90;;;;;;;17.68;28.51;101388.75;1462743;88;21596;-93
2022/05/18 09:52:29;;;;;;;2.83;0.90;;;;;;;17.58;29.38;101379.58;1481213;87;21517;-90
2022/05/18 09:55:00;;;;;;;13.67;6.17;;;;;;;17.72;28.06;101378.52;1470395;88;22324;-90
2022/05/18 09:58:06;;;;;;;5.03;3.30;;;;;;;17.40;27.07;101381.59;1476800;87;22063;-89
2022/05/18 10:00:37;;;;;;;20.57;2.30;;;;;;;17.37;28.05;101392.64;1467325;87;22283;-89
2022/05/18 10:09:00;;;;;;;9.83;1.03;;;;;;;18.02;28.99;101385.00;1464881;88;21411;-91
2022/05/18 10:11:33;;;;;;;4.90;0.67;;;;;;;17.70;27.97;101384.57;1465714;87;21641;-89
2022/05/18 10:14:17;;;;;;;10.93;0.83;;;;;;;17.90;27.74;101389.07;1466814;87;21488;-91
2022/05/18 10:16:48;;;;;;;2.83;0.77;;;;;;;17.82;27.21;101397.95;1482715;88;21551;-90
2022/05/18 10:19:22;;;;;;;8.70;1.10;;;;;;;17.78;27.22;101384.08;1474935;86;21480;-92
2022/05/18 10:22:00;;;;;;;1.67;0.83;;;;;;;18.23;29.26;101387.91;1474097;86;21670;-91
2022/05/18 10:24:34;;;;;;;7.53;1.40;;;;;;;18.66;29.41;101376.29;1500896;86;21403;-89
2022/05/18 10:27:18;;;;;;;1.13;0.80;;;;;;;18.70;26.96;101378.09;1487263;86;21495;-94
2022/05/18 10:30:05;;;;;;;3.17;0.95;;;;;;;18.31;25.56;101384.38;1474139;87;21428;-91
2022/05/18 10:32:32;;;;;;;4.12;0.98;;;;;;;18.42;25.96;101386.66;1477380;87;21550;-90
2022/05/18 10:35:01;;;;;;;6.97;2.00;;;;;;;18.39;28.09;101378.97;1471441;87;21420;-90
2022/05/18 10:37:38;;;;;;;1.85;0.98;;;;;;;18.28;26.79;101373.17;1472856;87;21594;-90
2022/05/18 10:40:15;;;;;;;1.60;0.90;;;;;;;18.39;28.93;101383.00;1478155;87;21576;-89
2022/05/18 10:42:52;;;;;;;2.13;0.90;;;;;;;18.09;26.46;101383.80;1460233;88;21524;-90
2022/05/18 10:45:34;;;;;;;8.05;1.02;;;;;;;18.44;28.90;101373.93;1465725;88;21367;-90
2022/05/18 10:48:17;;;;;;;4.08;1.05;;;;;;;18.60;26.86;101376.17;1475566;87;21400;-89
2022/05/18 10:50:45;;;;;;;17.42;1.80;;;;;;;18.89;30.85;101374.98;1471907;87;21362;-89
2022/05/18 10:53:19;;;;;;;10.40;1.10;;;;;;;18.98;28.44;101372.24;1459051;88;21403;-88
2022/05/18 10:56:03;;;;;;;9.88;1.00;;;;;;;18.89;26.23;101369.63;1458933;87;21444;-89
2022/05/18 10:58:37;;;;;;;3.90;1.02;;;;;;;18.40;27.03;101369.91;1461653;87;21492;-91
2022/05/18 11:01:11;;;;;;;3.27;0.93;;;;;;;18.25;25.83;101377.03;1471917;87;21448;-91
2022/05/18 11:04:10;;;;;;;0.80;0.80;;;;;;;18.18;26.22;101374.23;1475331;87;21530;-92
2022/05/18 11:06:40;;;;;;;6.30;1.00;;;;;;;18.21;26.16;101383.73;1463251;87;21415;-91
2022/05/18 11:09:16;;;;;;;;;;;;;;;18.08;26.51;101388.83;1480112;87;21421;-95
2022/05/18 11:11:57;;;;;;;5.83;0.87;;;;;;;18.31;27.48;101378.19;1478210;87;20318;-88
2022/05/18 11:14:37;;;;;;;4.10;1.17;;;;;;;18.64;27.75;101381.50;1489853;86;21522;-93
2022/05/18 11:17:25;;;;;;;;;;;;;;;18.96;26.80;101368.90;1463609;87;21702;-93
2022/05/18 11:20:34;;;;;;;8.23;1.20;;;;;;;18.99;26.54;101378.78;1472249;87;20351;-92
2022/05/18 11:23:39;;;;;;;7.20;1.07;;;;;;;19.05;26.99;101367.84;1438133;89;22279;-88
2022/05/18 11:26:23;;;;;;;0.88;0.55;;;;;;;19.25;25.24;101378.40;1467102;86;21500;-89
2022/05/18 11:29:15;;;;;;;4.95;0.80;;;;;;;18.78;24.72;101378.59;1454955;89;21474;-90
2022/05/18 11:32:22;;;;;;;4.47;0.82;;;;;;;19.07;26.28;101366.63;1468432;87;21531;-89
2022/05/18 11:35:09;;;;;;;13.30;1.35;;;;;;;19.53;27.57;101357.64;1476606;87;22359;-89
2022/05/18 11:38:03;;;;;;;6.33;0.90;;;;;;;19.71;26.01;101366.22;1476274;87;21524;-92
2022/05/18 11:40:58;;;;;;;3.42;0.82;;;;;;;19.32;23.93;101365.91;1478812;87;21568;-88
2022/05/18 11:43:50;;;;;;;11.60;1.10;;;;;;;19.44;26.04;101364.95;1477780;86;21495;-90
2022/05/18 11:46:41;;;;;;;4.78;1.72;;;;;;;19.42;25.62;101347.35;1473273;87;21455;-89
2022/05/18 11:49:25;;;;;;;6.22;1.07;;;;;;;19.74;25.22;101351.08;1472183;87;22330;-86
2022/05/18 11:52:17;;;;;;;2.37;0.80;;;;;;;19.71;24.90;101358.17;1458420;87;21473;-92
2022/05/18 11:54:54;;;;;;;1.50;0.82;;;;;;;19.88;25.39;101343.19;1435466;89;22502;-89
2022/05/18 11:58:03;;;;;;;5.25;1.35;;;;;;;19.43;24.43;101346.36;1438523;88;21623;-89
2022/05/18 12:00:58;;;;;;;6.95;2.02;;;;;;;19.77;26.69;101341.31;1471192;86;22964;-89
2022/05/18 12:03:51;;;;;;;4.78;0.88;;;;;;;19.96;25.68;101343.09;1442066;87;21520;-90
2022/05/18 12:06:39;;;;;;;7.45;0.90;;;;;;;19.95;24.46;101348.15;1437290;87;21479;-89